createdAt,value
2023-02-12T00:00:56.778Z,54.39
2023-02-12T00:05:09.212Z,55.30
2023-02-12T00:09:21.622Z,55.06
2023-02-12T00:13:33.919Z,52.43
2023-02-12T00:17:46.377Z,53.73
2023-02-12T00:21:58.788Z,54.62
2023-02-12T00:26:14.274Z,55.54
2023-02-12T00:30:31.769Z,52.89
2023-02-12T00:34:45.034Z,54.59
2023-02-12T00:39:01.598Z,54.81
2023-02-12T00:43:14.083Z,54.70
2023-02-12T00:47:26.587Z,55.16
2023-02-12T00:51:38.897Z,53.72
2023-02-12T00:55:51.342Z,52.51
2023-02-12T01:00:04.754Z,51.75
2023-02-12T01:04:17.774Z,51.99
2023-02-12T01:08:30.593Z,53.36
2023-02-12T01:12:43.737Z,54.77
2023-02-12T01:16:56.054Z,53.14
2023-02-12T01:21:15.124Z,52.03
2023-02-12T01:25:27.981Z,51.88
2023-02-12T01:29:44.864Z,50.40
2023-02-12T01:33:59.423Z,52.75
2023-02-12T01:38:11.794Z,54.10
2023-02-12T01:42:24.080Z,53.05
2023-02-12T01:46:37.302Z,53.18
2023-02-12T01:50:52.292Z,54.19
2023-02-12T01:55:08.825Z,54.50
2023-02-12T01:59:22.437Z,53.40
2023-02-12T02:03:38.411Z,52.36
2023-02-12T02:07:50.981Z,52.87
2023-02-12T02:12:22.659Z,53.29
2023-02-12T02:16:36.846Z,53.59
2023-02-12T02:21:10.648Z,53.35
2023-02-12T02:25:33.678Z,53.75
2023-02-12T02:30:13.121Z,52.99
2023-02-12T02:35:01.290Z,53.65
2023-02-12T02:39:30.879Z,52.27
2023-02-12T02:43:52.038Z,53.66
2023-02-12T02:48:13.989Z,53.95
2023-02-12T02:52:43.725Z,52.01
2023-02-12T02:57:06.465Z,51.62
2023-02-12T03:01:31.717Z,51.73
2023-02-12T03:05:49.455Z,51.24
2023-02-12T03:10:12.090Z,51.03
2023-02-12T03:14:31.868Z,50.70
2023-02-12T03:19:27.666Z,52.10
2023-02-12T03:24:22.772Z,51.30
2023-02-12T03:28:38.630Z,52.40
2023-02-12T03:33:20.569Z,52.33
2023-02-12T03:37:38.968Z,52.95
2023-02-12T03:42:02.707Z,53.29
2023-02-12T03:46:33.057Z,54.14
2023-02-12T03:50:48.549Z,52.76
2023-02-12T03:55:01.056Z,52.98
2023-02-12T03:59:13.621Z,53.34
2023-02-12T04:03:26.336Z,52.82
2023-02-12T04:07:38.815Z,52.59
2023-02-12T04:12:21.861Z,51.63
2023-02-12T04:17:11.479Z,52.27
2023-02-12T04:21:46.885Z,53.47
2023-02-12T04:26:26.023Z,54.52
2023-02-12T04:30:45.716Z,53.57
2023-02-12T04:35:02.712Z,54.86
2023-02-12T04:39:23.648Z,52.41
2023-02-12T04:43:37.919Z,54.91
2023-02-12T04:47:50.313Z,57.25
2023-02-12T04:52:02.721Z,57.94
2023-02-12T04:56:15.442Z,59.18
2023-02-12T05:00:27.850Z,59.73
2023-02-12T05:04:40.283Z,61.32
2023-02-12T05:08:55.774Z,62.64
2023-02-12T05:13:08.182Z,61.61
2023-02-12T05:17:23.133Z,61.78
2023-02-12T05:21:36.482Z,59.09
2023-02-12T05:25:57.103Z,59.58
2023-02-12T05:30:10.093Z,62.76
2023-02-12T05:34:22.433Z,63.30
2023-02-12T05:38:35.408Z,60.23
2023-02-12T05:42:47.970Z,60.27
2023-02-12T05:47:00.399Z,59.35
2023-02-12T05:51:16.415Z,60.69
2023-02-12T05:55:29.147Z,57.35
2023-02-12T05:59:41.441Z,57.75
2023-02-12T06:03:53.932Z,57.44
2023-02-12T06:08:06.314Z,56.47
2023-02-12T06:12:18.771Z,59.02
2023-02-12T06:16:32.211Z,56.42
2023-02-12T06:20:44.529Z,53.38
2023-02-12T06:24:56.937Z,52.21
2023-02-12T06:29:09.433Z,54.72
2023-02-12T06:33:22.242Z,55.72
2023-02-12T06:37:37.391Z,59.38
2023-02-12T06:41:50.875Z,60.78
2023-02-12T06:46:04.499Z,62.05
2023-02-12T06:50:17.112Z,61.14
2023-02-12T06:54:29.538Z,61.40
2023-02-12T06:58:46.633Z,60.72
2023-02-12T07:02:59.071Z,60.49
2023-02-12T07:07:11.513Z,59.99
2023-02-12T07:11:28.790Z,59.69
2023-02-12T07:15:41.184Z,60.06
2023-02-12T07:19:54.445Z,59.63
2023-02-12T07:24:07.897Z,59.85
2023-02-12T07:28:21.477Z,59.90
2023-02-12T07:32:34.967Z,59.06
2023-02-12T07:36:47.359Z,59.62
2023-02-12T07:41:12.574Z,58.81
2023-02-12T07:45:25.252Z,59.58
2023-02-12T07:49:37.671Z,59.57
2023-02-12T07:53:50.455Z,58.73
2023-02-12T07:58:04.764Z,56.64
2023-02-12T08:02:17.130Z,56.71
2023-02-12T08:06:32.911Z,56.00
2023-02-12T08:10:45.332Z,54.25
2023-02-12T08:14:57.877Z,53.64
2023-02-12T08:19:19.364Z,52.38
2023-02-12T08:23:34.658Z,52.61
2023-02-12T08:27:47.545Z,53.83
2023-02-12T08:32:02.745Z,53.74
2023-02-12T08:36:18.753Z,54.99
2023-02-12T08:40:31.164Z,51.80
2023-02-12T08:44:43.534Z,52.86
2023-02-12T08:48:58.661Z,51.56
2023-02-12T08:53:11.666Z,51.63
2023-02-12T08:57:26.724Z,50.47
2023-02-12T09:01:42.089Z,50.23
2023-02-12T09:05:54.890Z,50.25
2023-02-12T09:10:08.303Z,56.58
2023-02-12T09:14:24.991Z,57.75
2023-02-12T09:18:38.751Z,55.36
2023-02-12T09:22:51.179Z,55.55
2023-02-12T09:27:03.876Z,54.76
2023-02-12T09:31:21.135Z,54.57
2023-02-12T09:35:38.038Z,54.98
2023-02-12T09:39:51.300Z,53.07
2023-02-12T09:44:11.621Z,52.53
2023-02-12T09:48:42.389Z,53.17
2023-02-12T09:52:58.232Z,53.57
2023-02-12T09:57:21.775Z,50.98
2023-02-12T10:01:35.385Z,50.34
2023-02-12T10:06:00.248Z,50.10
2023-02-12T10:10:25.934Z,51.00
2023-02-12T10:15:17.318Z,52.25
2023-02-12T10:19:38.562Z,51.62
2023-02-12T10:24:05.914Z,54.39
2023-02-12T10:28:24.425Z,50.57
2023-02-12T10:32:38.955Z,50.84
2023-02-12T10:36:54.456Z,49.66
2023-02-12T10:41:16.598Z,50.84
2023-02-12T10:45:39.178Z,48.76
2023-02-12T10:49:58.236Z,48.22
2023-02-12T10:54:41.320Z,48.31
2023-02-12T10:58:59.703Z,48.89
2023-02-12T11:03:12.028Z,46.37
2023-02-12T11:07:26.572Z,45.95
2023-02-12T11:11:39.424Z,43.48
2023-02-12T11:15:52.159Z,56.82
2023-02-12T11:20:23.103Z,39.78
2023-02-12T11:24:37.408Z,38.69
2023-02-12T11:29:01.273Z,38.80
2023-02-12T11:33:37.590Z,37.97
2023-02-12T11:37:52.829Z,37.28
2023-02-12T11:42:20.466Z,35.11
2023-02-12T11:46:33.099Z,35.67
2023-02-12T11:50:51.207Z,33.56
2023-02-12T11:55:41.734Z,32.46
2023-02-12T11:59:56.740Z,30.87
2023-02-12T12:04:15.391Z,31.82
2023-02-12T12:08:49.916Z,32.10
2023-02-12T12:13:13.509Z,33.01
2023-02-12T12:18:12.772Z,31.17
2023-02-12T12:22:50.667Z,30.95
2023-02-12T12:27:51.121Z,29.42
2023-02-12T12:32:07.539Z,27.46
2023-02-12T12:37:16.015Z,27.72
2023-02-12T12:41:34.711Z,29.14
2023-02-12T12:46:15.570Z,30.43
2023-02-12T12:50:46.509Z,31.02
2023-02-12T12:55:34.409Z,31.25
2023-02-12T13:00:25.447Z,32.38
2023-02-12T13:04:51.641Z,32.41
2023-02-12T13:09:24.225Z,31.07
2023-02-12T13:14:04.283Z,30.26
2023-02-12T13:18:41.210Z,29.56
2023-02-12T13:23:04.500Z,28.90
2023-02-12T13:27:35.710Z,29.45
2023-02-12T13:32:09.242Z,29.54
2023-02-12T13:36:21.720Z,29.69
2023-02-12T13:40:35.513Z,30.55
2023-02-12T13:44:57.211Z,30.13
2023-02-12T13:49:25.371Z,30.24
2023-02-12T13:53:47.384Z,29.36
2023-02-12T13:58:39.461Z,29.22
2023-02-12T14:02:52.976Z,29.02
2023-02-12T14:07:10.542Z,28.59
2023-02-12T14:11:25.750Z,29.18
2023-02-12T14:15:45.249Z,29.80
2023-02-12T14:20:28.536Z,28.98
2023-02-12T14:24:53.187Z,28.30
2023-02-12T14:29:21.330Z,28.36
2023-02-12T14:33:36.184Z,27.97
2023-02-12T14:37:48.599Z,27.50
2023-02-12T14:42:25.989Z,27.84
2023-02-12T14:46:38.363Z,28.10
2023-02-12T14:50:52.578Z,28.48
2023-02-12T14:55:08.425Z,28.24
2023-02-12T14:59:24.485Z,29.00
2023-02-12T15:03:46.657Z,29.11
2023-02-12T15:08:24.140Z,28.61
2023-02-12T15:12:52.254Z,29.32
2023-02-12T15:17:11.929Z,28.82
2023-02-12T15:21:31.838Z,29.30
2023-02-12T15:25:45.327Z,29.34
2023-02-12T15:29:58.611Z,30.04
2023-02-12T15:34:24.306Z,30.56
2023-02-12T15:38:50.732Z,29.76
2023-02-12T15:43:07.584Z,31.00
2023-02-12T15:47:24.953Z,30.56
2023-02-12T15:51:42.065Z,31.31
2023-02-12T15:55:56.547Z,32.04
2023-02-12T16:00:41.745Z,31.67
2023-02-12T16:04:56.363Z,31.86
2023-02-12T16:09:16.008Z,31.80
2023-02-12T16:13:34.923Z,31.12
2023-02-12T16:17:48.618Z,31.08
2023-02-12T16:22:14.576Z,31.45
2023-02-12T16:26:28.140Z,31.40
2023-02-12T16:30:43.441Z,32.31
2023-02-12T16:35:06.256Z,32.59
2023-02-12T16:39:45.633Z,33.21
2023-02-12T16:44:11.086Z,33.40
2023-02-12T16:48:25.459Z,33.01
2023-02-12T16:52:42.667Z,33.05
2023-02-12T16:56:59.035Z,33.53
2023-02-12T17:01:18.377Z,33.95
2023-02-12T17:05:30.659Z,34.46
2023-02-12T17:09:43.037Z,35.03
2023-02-12T17:13:56.085Z,35.18
2023-02-12T17:18:09.008Z,35.76
2023-02-12T17:22:24.761Z,36.45
2023-02-12T17:26:40.968Z,36.83
2023-02-12T17:30:54.548Z,36.06
2023-02-12T17:35:09.486Z,36.43
2023-02-12T17:39:22.034Z,34.60
2023-02-12T17:43:36.670Z,34.62
2023-02-12T17:47:50.092Z,34.56
2023-02-12T17:52:06.426Z,35.24
2023-02-12T17:56:21.966Z,35.10
2023-02-12T18:00:34.807Z,34.92
2023-02-12T18:04:47.007Z,35.12
2023-02-12T18:09:01.893Z,35.53
2023-02-12T18:13:15.824Z,35.48
2023-02-12T18:17:37.845Z,35.44
2023-02-12T18:21:50.145Z,35.48
2023-02-12T18:26:11.362Z,35.71
2023-02-12T18:30:24.919Z,35.68
2023-02-12T18:34:37.365Z,36.06
2023-02-12T18:38:54.819Z,37.17
2023-02-12T18:43:07.291Z,37.55
2023-02-12T18:47:19.770Z,38.53
2023-02-12T18:51:36.711Z,38.50
2023-02-12T18:55:49.344Z,39.90
2023-02-12T19:00:03.785Z,40.97
2023-02-12T19:04:18.828Z,41.58
2023-02-12T19:08:32.388Z,42.47
2023-02-12T19:12:45.120Z,42.02
2023-02-12T19:16:57.700Z,43.41
2023-02-12T19:21:13.222Z,43.68
2023-02-12T19:25:25.834Z,43.49
2023-02-12T19:29:38.361Z,44.75
2023-02-12T19:33:54.731Z,46.10
2023-02-12T19:38:09.803Z,45.62
2023-02-12T19:42:22.398Z,43.13
2023-02-12T19:46:35.980Z,42.48
2023-02-12T19:50:48.440Z,44.16
2023-02-12T19:55:00.852Z,45.92
2023-02-12T19:59:17.375Z,43.37
2023-02-12T20:03:29.827Z,43.65
2023-02-12T20:07:43.297Z,42.06
2023-02-12T20:11:57.359Z,41.26
2023-02-12T20:16:12.883Z,42.26
2023-02-12T20:20:25.565Z,43.80
2023-02-12T20:24:39.134Z,44.05
2023-02-12T20:28:51.696Z,45.13
2023-02-12T20:33:04.021Z,45.91
2023-02-12T20:37:18.439Z,44.45
2023-02-12T20:41:30.867Z,44.37
2023-02-12T20:45:43.383Z,45.87
2023-02-12T20:49:56.704Z,45.66
2023-02-12T20:54:09.451Z,46.19
2023-02-12T20:58:21.718Z,45.73
2023-02-12T21:02:34.164Z,44.04
2023-02-12T21:06:49.574Z,45.18
2023-02-12T21:11:06.239Z,45.15
2023-02-12T21:15:18.605Z,46.17
2023-02-12T21:19:31.035Z,45.95
2023-02-12T21:23:44.714Z,44.69
2023-02-12T21:27:57.092Z,46.07
2023-02-12T21:32:09.799Z,45.20
2023-02-12T21:36:25.626Z,47.07
2023-02-12T21:40:37.996Z,48.51
2023-02-12T21:44:50.413Z,47.22
2023-02-12T21:49:04.070Z,48.06
2023-02-12T21:53:17.330Z,47.85
2023-02-12T21:57:29.767Z,48.62
2023-02-12T22:01:49.176Z,49.36
2023-02-12T22:06:03.784Z,48.21
2023-02-12T22:10:19.863Z,49.39
2023-02-12T22:14:33.125Z,49.91
2023-02-12T22:18:50.662Z,47.51
2023-02-12T22:23:03.280Z,47.15
2023-02-12T22:27:16.805Z,49.12
2023-02-12T22:31:32.102Z,46.75
2023-02-12T22:35:44.590Z,47.20
2023-02-12T22:39:57.072Z,46.93
2023-02-12T22:44:11.137Z,48.05
2023-02-12T22:48:25.852Z,47.35
2023-02-12T22:52:38.538Z,47.06
2023-02-12T22:56:52.367Z,46.93
2023-02-12T23:01:09.580Z,46.32
2023-02-12T23:05:22.199Z,45.17
2023-02-12T23:09:34.577Z,44.05
2023-02-12T23:13:47.070Z,43.26
2023-02-12T23:17:59.466Z,43.58
2023-02-12T23:22:14.741Z,43.97
2023-02-12T23:26:29.624Z,43.42
2023-02-12T23:30:42.243Z,44.42
2023-02-12T23:34:54.690Z,46.14
2023-02-12T23:39:07.414Z,46.25
2023-02-12T23:43:19.738Z,45.97
2023-02-12T23:47:32.191Z,45.70
2023-02-12T23:51:46.644Z,46.10
2023-02-12T23:56:04.456Z,48.25
